Time;durP1;ratioP1;P1;durP2;ratioP2;P2;SDS_P1;SDS_P2;PMS_P1;PMS_P2;Temp;Humidity;BMP_temperature;BMP_pressure;BME280_temperature;BME280_humidity;BME280_pressure;Samples;Min_cycle;Max_cycle;Signal;HPM_P1;HPM_P2
2023/05/01 00:00:33;;;;;;;;;;;8.00;99.90;;;;;;5068461;28;19935;-77
2023/05/01 00:02:58;;;;;;;;;;;8.00;99.90;;;;;;5084884;28;19932;-77
2023/05/01 00:05:24;;;;;;;;;;;8.00;99.90;;;;;;5073360;28;19979;-77
2023/05/01 00:07:49;;;;;;;;;;;8.00;99.90;;;;;;5067387;28;20380;-77
2023/05/01 00:10:15;;;;;;;;;;;7.90;99.90;;;;;;5074172;28;20362;-77
2023/05/01 00:12:41;;;;;;;;;;;7.90;99.90;;;;;;5084513;28;20334;-77
2023/05/01 00:15:07;;;;;;;;;;;7.90;99.90;;;;;;5053680;28;19925;-77
2023/05/01 00:17:33;;;;;;;;;;;7.90;99.90;;;;;;5086461;28;19928;-77
2023/05/01 00:19:58;;;;;;;;;;;7.80;99.90;;;;;;5059306;28;19932;-77
2023/05/01 00:22:24;;;;;;;;;;;7.80;99.90;;;;;;5072273;28;19928;-77
2023/05/01 00:24:49;;;;;;;;;;;7.80;99.90;;;;;;5078220;28;19939;-77
2023/05/01 00:27:15;;;;;;;;;;;7.80;99.90;;;;;;5085572;28;20003;-77
2023/05/01 00:29:41;;;;;;;;;;;7.80;99.90;;;;;;5085681;28;20015;-77
2023/05/01 00:32:06;;;;;;;;;;;7.70;99.90;;;;;;5067551;28;19932;-77
2023/05/01 00:34:32;;;;;;;;;;;7.70;99.90;;;;;;5065354;28;19924;-77
2023/05/01 00:36:57;;;;;;;;;;;7.70;99.90;;;;;;5070478;28;19925;-77
2023/05/01 00:39:23;;;;;;;;;;;7.70;99.90;;;;;;5054333;28;20380;-77
2023/05/01 00:41:49;;;;;;;;;;;7.70;99.90;;;;;;5066519;28;20034;-77
2023/05/01 00:44:15;;;;;;;;;;;7.70;99.90;;;;;;5090393;28;19939;-77
2023/05/01 00:46:42;;;;;;;;;;;7.70;99.90;;;;;;5044664;28;19990;-77
2023/05/01 00:49:08;;;;;;;;;;;7.70;99.90;;;;;;5061022;28;19931;-77
2023/05/01 00:51:34;;;;;;;;;;;7.60;99.90;;;;;;5087873;28;19924;-77
2023/05/01 00:54:00;;;;;;;;;;;7.60;99.90;;;;;;5086793;28;20383;-77
2023/05/01 00:56:26;;;;;;;;;;;7.60;99.90;;;;;;5089203;28;19940;-77
2023/05/01 00:58:52;;;;;;;;;;;7.60;99.90;;;;;;5088778;28;19931;-77
2023/05/01 01:01:21;;;;;;;;;;;7.60;99.90;;;;;;5043578;28;19924;-77
2023/05/01 01:03:47;;;;;;;;;;;7.60;99.90;;;;;;5060118;28;20335;-77
2023/05/01 01:06:31;;;;;;;;;;;7.50;99.90;;;;;;5062316;28;19928;-77
2023/05/01 01:09:07;;;;;;;;;;;7.40;99.90;;;;;;5082958;28;19925;-77
2023/05/01 01:11:45;;;;;;;;;;;7.40;99.90;;;;;;5061620;28;19935;-78
2023/05/01 01:14:15;;;;;;;;;;;7.30;99.90;;;;;;5096062;28;19970;-77
2023/05/01 01:16:47;;;;;;;;;;;7.30;99.90;;;;;;5062501;28;19964;-77
2023/05/01 01:19:19;;;;;;;;;;;7.20;99.90;;;;;;5095228;28;19928;-77
2023/05/01 01:21:46;;;;;;;;;;;7.20;99.90;;;;;;5094216;28;19929;-77
2023/05/01 01:24:31;;;;;;;;;;;7.10;99.90;;;;;;5089413;28;19925;-77
2023/05/01 01:26:57;;;;;;;;;;;7.10;99.90;;;;;;5051324;28;19932;-77
2023/05/01 01:29:41;;;;;;;;;;;7.10;99.90;;;;;;5096022;28;19928;-77
2023/05/01 01:32:13;;;;;;;;;;;7.10;99.90;;;;;;5088612;28;20053;-77
2023/05/01 01:34:43;;;;;;;;;;;7.10;99.90;;;;;;5096129;28;19964;-77
2023/05/01 01:37:29;;;;;;;;;;;7.10;99.90;;;;;;5112026;28;20401;-77
2023/05/01 01:40:10;;;;;;;;;;;7.10;99.90;;;;;;5093981;28;19928;-77
2023/05/01 01:42:45;;;;;;;;;;;7.00;99.90;;;;;;5055807;28;19935;-77
2023/05/01 01:45:22;;;;;;;;;;;7.00;99.90;;;;;;5058938;28;19963;-77
2023/05/01 01:47:50;;;;;;;;;;;7.00;99.90;;;;;;5087618;28;19928;-77
2023/05/01 01:50:17;;;;;;;;;;;7.00;99.90;;;;;;5086343;28;19929;-77
2023/05/01 01:52:44;;;;;;;;;;;7.00;99.90;;;;;;5084486;28;19928;-77
2023/05/01 01:55:11;;;;;;;;;;;7.10;99.90;;;;;;5076063;28;19924;-77
2023/05/01 01:57:38;;;;;;;;;;;7.10;99.90;;;;;;5088718;28;19972;-77
2023/05/01 02:00:07;;;;;;;;;;;7.10;99.90;;;;;;5074183;28;19928;-77
2023/05/01 02:02:34;;;;;;;;;;;7.10;99.90;;;;;;5088307;28;19924;-77
2023/05/01 02:05:00;;;;;;;;;;;7.10;99.90;;;;;;5076364;28;19992;-76
2023/05/01 02:07:27;;;;;;;;;;;7.00;99.90;;;;;;5087242;28;19971;-77
2023/05/01 02:09:54;;;;;;;;;;;7.00;99.90;;;;;;5080403;28;19932;-77
2023/05/01 02:12:19;;;;;;;;;;;7.00;99.90;;;;;;5057617;28;19928;-76
2023/05/01 02:14:47;;;;;;;;;;;7.00;99.90;;;;;;5085786;28;20035;-77
2023/05/01 02:17:13;;;;;;;;;;;7.00;99.90;;;;;;5075375;28;19929;-77
2023/05/01 02:19:40;;;;;;;;;;;7.00;99.90;;;;;;5087900;28;19925;-77
2023/05/01 02:22:06;;;;;;;;;;;6.90;99.90;;;;;;5086308;28;19931;-77
2023/05/01 02:24:33;;;;;;;;;;;6.90;99.90;;;;;;5069290;28;19928;-77
2023/05/01 02:27:05;;;;;;;;;;;6.90;99.90;;;;;;5088072;28;19933;-77
2023/05/01 02:29:30;;;;;;;;;;;6.90;99.90;;;;;;5083207;28;19929;-77
2023/05/01 02:31:56;;;;;;;;;;;6.90;99.90;;;;;;5070898;28;19975;-77
2023/05/01 02:34:21;;;;;;;;;;;6.90;99.90;;;;;;5069849;28;20468;-77
2023/05/01 02:36:48;;;;;;;;;;;6.90;99.90;;;;;;5087736;28;19935;-77
2023/05/01 02:39:13;;;;;;;;;;;6.90;99.90;;;;;;5070479;28;19986;-77
2023/05/01 02:41:40;;;;;;;;;;;6.90;99.90;;;;;;5070329;28;19968;-77
2023/05/01 02:44:07;;;;;;;;;;;6.80;99.90;;;;;;5068705;28;19932;-76
2023/05/01 02:46:34;;;;;;;;;;;6.80;99.90;;;;;;5070271;28;20056;-77
2023/05/01 02:49:01;;;;;;;;;;;6.80;99.90;;;;;;5056257;28;20010;-77
2023/05/01 02:51:28;;;;;;;;;;;6.80;99.90;;;;;;5062854;28;19929;-77
2023/05/01 02:53:54;;;;;;;;;;;6.70;99.90;;;;;;5070134;28;19958;-77
2023/05/01 02:56:20;;;;;;;;;;;6.70;99.90;;;;;;5085150;28;19935;-77
2023/05/01 02:58:47;;;;;;;;;;;6.60;99.90;;;;;;5070926;28;20043;-77
2023/05/01 03:01:12;;;;;;;;;;;6.60;99.90;;;;;;5058750;28;19931;-77
2023/05/01 03:03:38;;;;;;;;;;;6.60;99.90;;;;;;5087060;28;19959;-77
2023/05/01 03:06:04;;;;;;;;;;;6.60;99.90;;;;;;5081250;28;19925;-77
2023/05/01 03:08:29;;;;;;;;;;;6.60;99.90;;;;;;5093016;28;19924;-77
2023/05/01 03:10:55;;;;;;;;;;;6.60;99.90;;;;;;5076884;28;19972;-77
2023/05/01 03:13:21;;;;;;;;;;;6.60;99.90;;;;;;5077077;28;19924;-77
2023/05/01 03:15:47;;;;;;;;;;;6.60;99.90;;;;;;5092045;28;20304;-77
2023/05/01 03:18:12;;;;;;;;;;;6.60;99.90;;;;;;5077930;28;19932;-77
2023/05/01 03:20:38;;;;;;;;;;;6.50;99.90;;;;;;5068098;28;19960;-77
2023/05/01 03:23:05;;;;;;;;;;;6.50;99.90;;;;;;5090981;28;19939;-76
2023/05/01 03:25:31;;;;;;;;;;;6.40;99.90;;;;;;5076908;28;19954;-76
2023/05/01 03:27:56;;;;;;;;;;;6.40;99.90;;;;;;5092914;28;19929;-77
2023/05/01 03:30:22;;;;;;;;;;;6.40;99.90;;;;;;5077121;28;19929;-77
2023/05/01 03:32:47;;;;;;;;;;;6.40;99.90;;;;;;5075071;28;19925;-77
2023/05/01 03:35:13;;;;;;;;;;;6.30;99.90;;;;;;5093930;28;20011;-77
2023/05/01 03:37:38;;;;;;;;;;;6.30;99.90;;;;;;5088740;28;20018;-77
2023/05/01 03:40:05;;;;;;;;;;;6.30;99.90;;;;;;5066995;28;19931;-77
2023/05/01 03:42:30;;;;;;;;;;;6.30;99.90;;;;;;5068788;28;19935;-77
2023/05/01 03:44:56;;;;;;;;;;;6.30;99.90;;;;;;5059763;28;19939;-77
2023/05/01 03:47:22;;;;;;;;;;;6.30;99.90;;;;;;5085221;28;19944;-77
2023/05/01 03:49:47;;;;;;;;;;;6.30;99.90;;;;;;5067975;28;20004;-77
2023/05/01 03:52:13;;;;;;;;;;;6.30;99.90;;;;;;5068594;28;20334;-76
2023/05/01 03:54:39;;;;;;;;;;;6.30;99.90;;;;;;5085641;28;20375;-77
2023/05/01 03:57:05;;;;;;;;;;;6.30;99.90;;;;;;5084868;28;19936;-77
2023/05/01 03:59:30;;;;;;;;;;;6.30;99.90;;;;;;5085239;28;19976;-77
2023/05/01 04:01:56;;;;;;;;;;;6.30;99.90;;;;;;5040538;28;19932;-77
2023/05/01 04:04:21;;;;;;;;;;;6.30;99.90;;;;;;5058128;28;19931;-77
2023/05/01 04:06:48;;;;;;;;;;;6.30;99.90;;;;;;5069892;28;19931;-77
2023/05/01 04:09:14;;;;;;;;;;;6.30;99.90;;;;;;5068834;28;19924;-77
2023/05/01 04:11:39;;;;;;;;;;;6.30;99.90;;;;;;5082814;28;19929;-77
2023/05/01 04:14:05;;;;;;;;;;;6.40;99.90;;;;;;5080373;28;19928;-77
2023/05/01 04:16:31;;;;;;;;;;;6.40;99.90;;;;;;5066716;28;20259;-77
2023/05/01 04:18:56;;;;;;;;;;;6.50;99.90;;;;;;5090366;28;19932;-77
2023/05/01 04:21:22;;;;;;;;;;;6.50;99.90;;;;;;5071485;28;19935;-77
2023/05/01 04:23:47;;;;;;;;;;;6.50;99.90;;;;;;5090771;28;19989;-77
2023/05/01 04:26:13;;;;;;;;;;;6.50;99.90;;;;;;5073545;28;19983;-77
2023/05/01 04:28:38;;;;;;;;;;;6.50;99.90;;;;;;5073004;28;19950;-77
2023/05/01 04:31:04;;;;;;;;;;;6.50;99.90;;;;;;5094356;28;19924;-77
2023/05/01 04:33:30;;;;;;;;;;;6.50;99.90;;;;;;5073756;28;19930;-77
2023/05/01 04:35:56;;;;;;;;;;;6.50;99.90;;;;;;5062185;28;20109;-77
2023/05/01 04:38:21;;;;;;;;;;;6.50;99.90;;;;;;5076443;28;19932;-77
2023/05/01 04:40:47;;;;;;;;;;;6.50;99.90;;;;;;5060574;28;19959;-77
2023/05/01 04:43:12;;;;;;;;;;;6.60;99.90;;;;;;5075952;28;19924;-77
2023/05/01 04:45:38;;;;;;;;;;;6.60;99.90;;;;;;5070543;28;19996;-77
2023/05/01 04:48:03;;;;;;;;;;;6.60;99.90;;;;;;5058007;28;19928;-77
2023/05/01 04:50:29;;;;;;;;;;;6.70;99.90;;;;;;5075894;28;19956;-77
2023/05/01 04:52:55;;;;;;;;;;;6.70;99.90;;;;;;5065217;28;19962;-77
2023/05/01 04:55:21;;;;;;;;;;;6.80;99.90;;;;;;5070407;28;19988;-77
2023/05/01 04:57:47;;;;;;;;;;;6.90;99.90;;;;;;5081768;28;19929;-76
2023/05/01 05:00:12;;;;;;;;;;;6.90;99.90;;;;;;5061502;28;19932;-77
2023/05/01 05:02:38;;;;;;;;;;;7.00;99.90;;;;;;5089950;28;19961;-77
2023/05/01 05:05:04;;;;;;;;;;;7.10;99.90;;;;;;5088910;28;19952;-77
2023/05/01 05:07:29;;;;;;;;;;;7.20;99.90;;;;;;5073928;28;21772;-77
2023/05/01 05:09:55;;;;;;;;;;;7.40;99.90;;;;;;5071755;28;19975;-77
2023/05/01 05:12:20;;;;;;;;;;;7.60;99.90;;;;;;5076275;28;19924;-77
2023/05/01 05:14:46;;;;;;;;;;;7.90;99.90;;;;;;5051232;28;19952;-77
2023/05/01 05:17:12;;;;;;;;;;;8.30;99.90;;;;;;5072886;28;19955;-77
2023/05/01 05:19:38;;;;;;;;;;;8.60;99.90;;;;;;5070140;28;20380;-77
2023/05/01 05:22:03;;;;;;;;;;;8.80;99.90;;;;;;5060714;28;20613;-77
2023/05/01 05:24:29;;;;;;;;;;;8.80;99.90;;;;;;5070641;28;20023;-77
2023/05/01 05:26:55;;;;;;;;;;;8.70;99.90;;;;;;5079290;28;19928;-77
2023/05/01 05:29:20;;;;;;;;;;;8.70;99.90;;;;;;5062510;28;19935;-77
2023/05/01 05:31:46;;;;;;;;;;;8.70;99.90;;;;;;5078587;28;19935;-77
2023/05/01 05:34:12;;;;;;;;;;;8.70;99.90;;;;;;5094156;28;19925;-77
2023/05/01 05:36:37;;;;;;;;;;;8.80;99.90;;;;;;5087215;28;19928;-77
2023/05/01 05:39:03;;;;;;;;;;;9.00;99.90;;;;;;5087559;28;19936;-77
2023/05/01 05:41:29;;;;;;;;;;;9.30;99.90;;;;;;5087115;28;20483;-77
2023/05/01 05:43:54;;;;;;;;;;;9.70;99.90;;;;;;5064151;28;19931;-77
2023/05/01 05:46:20;;;;;;;;;;;9.90;99.90;;;;;;5072899;28;19924;-77
2023/05/01 05:48:45;;;;;;;;;;;10.00;99.90;;;;;;5069558;28;20569;-77
2023/05/01 05:51:11;;;;;;;;;;;10.00;99.90;;;;;;5071887;28;19936;-77
2023/05/01 05:53:37;;;;;;;;;;;10.00;99.90;;;;;;5087968;28;19933;-77
2023/05/01 05:56:03;;;;;;;;;;;9.90;99.90;;;;;;5072710;28;19924;-77
2023/05/01 05:58:29;;;;;;;;;;;9.90;99.90;;;;;;5067284;28;19935;-78
2023/05/01 06:00:54;;;;;;;;;;;10.00;99.90;;;;;;5088725;28;19964;-77
2023/05/01 06:03:20;;;;;;;;;;;10.00;99.90;;;;;;5087461;28;19936;-77
2023/05/01 06:05:46;;;;;;;;;;;10.10;99.90;;;;;;5090978;28;19939;-77
2023/05/01 06:08:12;;;;;;;;;;;10.20;99.90;;;;;;5065570;28;19924;-77
2023/05/01 06:10:39;;;;;;;;;;;10.40;99.90;;;;;;5090622;28;19925;-77
2023/05/01 06:13:07;;;;;;;;;;;10.70;99.90;;;;;;5083665;28;19928;-77
2023/05/01 06:15:33;;;;;;;;;;;11.10;99.90;;;;;;5106132;28;20197;-77
2023/05/01 06:17:59;;;;;;;;;;;11.40;99.90;;;;;;5065795;28;20290;-77
2023/05/01 06:20:25;;;;;;;;;;;11.50;99.90;;;;;;5059687;28;20054;-77
2023/05/01 06:22:50;;;;;;;;;;;11.60;99.90;;;;;;5094730;28;19924;-77
2023/05/01 06:25:16;;;;;;;;;;;11.50;99.90;;;;;;5061579;28;20053;-77
2023/05/01 06:27:41;;;;;;;;;;;11.60;99.90;;;;;;5059599;28;19924;-77
2023/05/01 06:30:08;;;;;;;;;;;11.80;99.90;;;;;;5063859;28;19940;-77
2023/05/01 06:32:34;;;;;;;;;;;11.90;99.90;;;;;;5066864;28;20624;-77
2023/05/01 06:34:59;;;;;;;;;;;11.90;99.90;;;;;;5069830;28;19959;-77
2023/05/01 06:37:25;;;;;;;;;;;12.00;99.90;;;;;;5089677;28;20662;-77
2023/05/01 06:39:50;;;;;;;;;;;12.20;99.90;;;;;;5086936;28;19963;-77
2023/05/01 06:42:16;;;;;;;;;;;12.50;99.90;;;;;;5062743;28;19947;-77
2023/05/01 06:44:42;;;;;;;;;;;12.80;99.90;;;;;;5103695;28;19924;-78
2023/05/01 06:47:07;;;;;;;;;;;12.90;99.90;;;;;;5086930;28;19986;-77
2023/05/01 06:49:33;;;;;;;;;;;13.10;99.90;;;;;;5069854;28;19955;-78
2023/05/01 06:51:58;;;;;;;;;;;13.20;99.90;;;;;;5072850;28;19939;-77
2023/05/01 06:54:25;;;;;;;;;;;13.40;99.90;;;;;;5084963;28;19974;-78
2023/05/01 06:56:51;;;;;;;;;;;13.40;99.90;;;;;;5070964;28;20310;-77
2023/05/01 06:59:17;;;;;;;;;;;13.30;99.90;;;;;;5068941;28;19928;-78
2023/05/01 07:01:43;;;;;;;;;;;13.20;99.90;;;;;;5086608;28;19936;-78
2023/05/01 07:04:08;;;;;;;;;;;13.00;99.90;;;;;;5083564;28;19932;-78
2023/05/01 07:06:34;;;;;;;;;;;12.90;99.90;;;;;;5063111;28;19928;-78
2023/05/01 07:09:00;;;;;;;;;;;12.80;99.90;;;;;;5082303;28;19931;-77
2023/05/01 07:11:25;;;;;;;;;;;12.70;99.90;;;;;;5058694;28;19929;-77
2023/05/01 07:13:51;;;;;;;;;;;12.70;99.90;;;;;;5040830;28;19928;-77
2023/05/01 07:16:17;;;;;;;;;;;12.70;99.90;;;;;;5041430;28;20396;-78
2023/05/01 07:18:42;;;;;;;;;;;12.60;99.90;;;;;;5075932;28;19924;-78
2023/05/01 07:21:10;;;;;;;;;;;12.60;99.90;;;;;;5091706;28;20007;-77
2023/05/01 07:23:36;;;;;;;;;;;12.60;99.90;;;;;;5076265;28;20300;-77
2023/05/01 07:26:02;;;;;;;;;;;12.60;99.90;;;;;;5058287;28;19935;-78
2023/05/01 07:28:29;;;;;;;;;;;12.60;99.90;;;;;;5093116;28;19992;-78
2023/05/01 07:30:54;;;;;;;;;;;12.70;99.90;;;;;;5086895;28;20008;-78
2023/05/01 07:33:20;;;;;;;;;;;12.70;99.90;;;;;;5067580;28;20371;-78
2023/05/01 07:35:45;;;;;;;;;;;12.70;99.90;;;;;;5070446;28;19928;-78
2023/05/01 07:38:12;;;;;;;;;;;12.70;99.90;;;;;;5068865;28;19946;-78
2023/05/01 07:40:38;;;;;;;;;;;12.70;99.90;;;;;;5088066;28;20388;-78
2023/05/01 07:43:04;;;;;;;;;;;12.80;99.90;;;;;;5093992;28;19924;-78
2023/05/01 07:45:29;;;;;;;;;;;12.80;99.90;;;;;;5070453;28;19924;-78
2023/05/01 07:47:55;;;;;;;;;;;12.90;99.90;;;;;;5078921;28;20031;-78
2023/05/01 07:50:22;;;;;;;;;;;12.90;99.90;;;;;;5081173;28;19944;-77
2023/05/01 07:52:47;;;;;;;;;;;13.00;99.90;;;;;;5058165;28;19936;-78
2023/05/01 07:55:13;;;;;;;;;;;13.10;99.90;;;;;;5059606;28;20326;-78
2023/05/01 07:57:39;;;;;;;;;;;13.20;99.90;;;;;;5092900;28;19924;-75
2023/05/01 08:00:05;;;;;;;;;;;13.30;99.90;;;;;;5093360;28;20007;-79
2023/05/01 08:02:30;;;;;;;;;;;13.50;99.90;;;;;;5092096;28;19928;-79
2023/05/01 08:04:56;;;;;;;;;;;13.80;99.90;;;;;;5043412;28;19939;-79
2023/05/01 08:07:22;;;;;;;;;;;14.10;99.90;;;;;;5039190;28;19931;-79
2023/05/01 08:09:47;;;;;;;;;;;14.60;99.90;;;;;;5037113;28;19947;-79
2023/05/01 08:12:13;;;;;;;;;;;14.90;99.90;;;;;;5068804;28;19924;-79
2023/05/01 08:14:39;;;;;;;;;;;15.60;99.90;;;;;;5087330;28;19932;-79
2023/05/01 08:17:04;;;;;;;;;;;16.30;99.00;;;;;;5061329;28;19931;-80
2023/05/01 08:19:30;;;;;;;;;;;16.70;96.50;;;;;;5042982;28;20418;-80
2023/05/01 08:21:56;;;;;;;;;;;17.20;99.90;;;;;;5083518;28;19939;-79
2023/05/01 08:24:21;;;;;;;;;;;17.60;95.30;;;;;;5041108;28;19929;-79
2023/05/01 08:26:47;;;;;;;;;;;17.60;92.60;;;;;;5065076;28;19932;-80
2023/05/01 08:29:13;;;;;;;;;;;17.60;91.10;;;;;;5041688;28;19970;-80
2023/05/01 08:31:41;;;;;;;;;;;17.50;90.60;;;;;;5065700;28;20336;-80
2023/05/01 08:34:07;;;;;;;;;;;17.50;93.40;;;;;;5065808;28;20437;-80
2023/05/01 08:36:32;;;;;;;;;;;17.60;91.90;;;;;;5070416;28;19925;-79
2023/05/01 08:38:58;;;;;;;;;;;17.90;96.00;;;;;;5084804;28;19976;-78
2023/05/01 08:41:25;;;;;;;;;;;18.10;85.60;;;;;;5088369;28;19932;-78
2023/05/01 08:43:51;;;;;;;;;;;18.10;81.70;;;;;;5077810;28;20395;-78
2023/05/01 08:46:22;;;;;;;;;;;18.30;92.70;;;;;;5039302;28;19932;-79
2023/05/01 08:48:48;;;;;;;;;;;18.40;93.70;;;;;;5092837;28;20393;-78
2023/05/01 08:51:16;;;;;;;;;;;18.50;91.70;;;;;;5058829;28;19924;-78
2023/05/01 08:53:42;;;;;;;;;;;18.80;89.20;;;;;;5071005;28;19932;-78
2023/05/01 08:56:09;;;;;;;;;;;19.00;89.60;;;;;;5083194;28;19925;-78
2023/05/01 08:58:35;;;;;;;;;;;18.80;75.70;;;;;;5075089;28;19991;-78
2023/05/01 09:01:01;;;;;;;;;;;18.70;83.40;;;;;;5071126;28;19925;-78
2023/05/01 09:03:30;;;;;;;;;;;18.70;85.80;;;;;;5058607;28;20392;-78
2023/05/01 09:05:58;;;;;;;;;;;18.80;82.00;;;;;;5093839;28;20129;-78
2023/05/01 09:08:24;;;;;;;;;;;18.90;81.90;;;;;;5059215;28;19925;-78
2023/05/01 09:10:50;;;;;;;;;;;19.20;78.30;;;;;;5039926;28;19954;-76
2023/05/01 09:13:16;;;;;;;;;;;19.30;86.10;;;;;;5068270;28;19929;-77
2023/05/01 09:15:43;;;;;;;;;;;19.60;81.20;;;;;;5089393;28;19931;-78
2023/05/01 09:18:08;;;;;;;;;;;19.80;76.80;;;;;;5090173;28;20017;-76
2023/05/01 09:20:36;;;;;;;;;;;19.90;79.30;;;;;;5072504;28;19928;-78
2023/05/01 09:23:01;;;;;;;;;;;20.00;75.50;;;;;;5088338;28;19946;-75
2023/05/01 09:25:27;;;;;;;;;;;20.20;75.80;;;;;;5057664;28;19929;-79
2023/05/01 09:27:53;;;;;;;;;;;20.10;72.30;;;;;;5072391;28;19970;-76
2023/05/01 09:30:35;;;;;;;;;;;20.00;71.20;;;;;;5109276;28;20003;-79
2023/05/01 09:33:08;;;;;;;;;;;20.00;71.10;;;;;;5070049;28;19938;-77
2023/05/01 09:35:50;;;;;;;;;;;19.90;68.90;;;;;;5056822;28;19946;-77
2023/05/01 09:38:16;;;;;;;;;;;20.10;72.80;;;;;;5052772;28;19939;-77
2023/05/01 09:40:42;;;;;;;;;;;20.20;70.10;;;;;;5076897;28;20011;-78
2023/05/01 09:43:08;;;;;;;;;;;20.40;72.50;;;;;;5073824;28;19970;-78
2023/05/01 09:45:34;;;;;;;;;;;20.60;70.80;;;;;;5072586;28;20655;-76
2023/05/01 09:48:10;;;;;;;;;;;20.40;68.10;;;;;;5071106;28;19946;-79
2023/05/01 09:50:35;;;;;;;;;;;20.40;70.40;;;;;;5075377;28;20677;-79
2023/05/01 09:53:03;;;;;;;;;;;20.50;72.80;;;;;;5049676;28;19959;-78
2023/05/01 09:55:29;;;;;;;;;;;20.70;71.70;;;;;;5058174;28;20310;-77
2023/05/01 09:57:55;;;;;;;;;;;20.70;73.80;;;;;;5089589;28;19960;-80
2023/05/01 10:00:20;;;;;;;;;;;20.80;70.40;;;;;;5091343;28;19986;-78
2023/05/01 10:02:46;;;;;;;;;;;20.80;69.40;;;;;;5040726;28;19929;-75
2023/05/01 10:05:12;;;;;;;;;;;20.80;68.40;;;;;;5070300;28;19924;-75
2023/05/01 10:07:38;;;;;;;;;;;20.90;69.20;;;;;;5070332;28;19925;-75
2023/05/01 10:10:17;;;;;;;;;;;20.90;69.60;;;;;;5061983;28;19924;-75
2023/05/01 10:12:43;;;;;;;;;;;21.00;71.60;;;;;;5078026;28;19931;-76
2023/05/01 10:15:08;;;;;;;;;;;21.00;68.30;;;;;;5094158;28;19939;-75
2023/05/01 10:17:35;;;;;;;;;;;21.00;67.70;;;;;;5095030;28;19925;-75
2023/05/01 10:20:00;;;;;;;;;;;20.90;73.70;;;;;;5061395;28;20287;-75
2023/05/01 10:22:27;;;;;;;;;;;20.90;69.20;;;;;;5095289;28;19939;-75
2023/05/01 10:24:53;;;;;;;;;;;21.00;70.50;;;;;;5074923;28;19924;-75
2023/05/01 10:27:21;;;;;;;;;;;21.00;68.60;;;;;;5060570;28;20018;-75
2023/05/01 10:29:47;;;;;;;;;;;20.90;65.80;;;;;;5094891;28;19947;-75
2023/05/01 10:32:13;;;;;;;;;;;20.90;68.30;;;;;;5059162;28;19924;-75
2023/05/01 10:34:42;;;;;;;;;;;20.90;68.00;;;;;;5047983;28;19924;-77
2023/05/01 10:37:18;;;;;;;;;;;20.80;62.80;;;;;;5060008;28;19928;-79
2023/05/01 10:39:44;;;;;;;;;;;20.80;66.70;;;;;;5061765;28;19987;-79
2023/05/01 10:42:12;;;;;;;;;;;20.70;69.80;;;;;;5077064;28;20619;-79
2023/05/01 10:44:39;;;;;;;;;;;20.60;59.80;;;;;;5078083;28;19925;-78
2023/05/01 10:47:24;;;;;;;;;;;20.60;64.20;;;;;;5060924;28;19953;-78
2023/05/01 10:50:03;;;;;;;;;;;20.60;64.50;;;;;;5094298;28;19925;-78
2023/05/01 10:52:29;;;;;;;;;;;20.70;64.80;;;;;;5061115;28;20006;-80
2023/05/01 10:55:15;;;;;;;;;;;20.80;68.10;;;;;;5077539;28;19968;-79
2023/05/01 10:57:42;;;;;;;;;;;20.90;67.20;;;;;;5050411;28;19989;-79
2023/05/01 11:00:08;;;;;;;;;;;21.10;65.60;;;;;;5076449;28;19925;-79
2023/05/01 11:02:33;;;;;;;;;;;21.20;66.50;;;;;;5092866;28;19963;-79
2023/05/01 11:04:59;;;;;;;;;;;21.30;64.60;;;;;;5093968;28;19935;-79
2023/05/01 11:07:26;;;;;;;;;;;21.30;65.00;;;;;;5070123;28;19924;-79
2023/05/01 11:10:00;;;;;;;;;;;21.50;66.70;;;;;;5076274;28;19925;-78
2023/05/01 11:12:41;;;;;;;;;;;21.60;65.10;;;;;;5080137;28;19929;-78
2023/05/01 11:15:07;;;;;;;;;;;21.50;61.10;;;;;;5098880;28;19928;-79
2023/05/01 11:17:42;;;;;;;;;;;21.50;67.90;;;;;;5060741;28;19932;-79
2023/05/01 11:20:08;;;;;;;;;;;21.50;66.50;;;;;;5092347;28;19955;-79
2023/05/01 11:22:34;;;;;;;;;;;21.60;65.60;;;;;;5088713;28;20489;-79
2023/05/01 11:25:02;;;;;;;;;;;21.80;64.00;;;;;;5089761;28;19924;-79
2023/05/01 11:27:27;;;;;;;;;;;21.80;65.00;;;;;;5088487;28;19933;-79
2023/05/01 11:29:54;;;;;;;;;;;21.90;64.50;;;;;;5073363;28;19935;-79
2023/05/01 11:32:26;;;;;;;;;;;21.80;53.90;;;;;;5080998;28;20291;-78
2023/05/01 11:34:51;;;;;;;;;;;21.90;62.00;;;;;;5078666;28;19931;-79
2023/05/01 11:37:17;;;;;;;;;;;22.00;61.50;;;;;;5110013;28;19924;-79
2023/05/01 11:39:51;;;;;;;;;;;22.10;61.80;;;;;;5075731;28;19935;-78
2023/05/01 11:42:19;;;;;;;;;;;22.20;62.90;;;;;;5105725;28;20019;-78
2023/05/01 11:45:03;;;;;;;;;;;22.30;58.80;;;;;;5073980;28;20502;-78
2023/05/01 11:47:31;;;;;;;;;;;22.00;57.50;;;;;;5063863;28;20353;-78
2023/05/01 11:49:56;;;;;;;;;;;21.70;59.80;;;;;;5090771;28;20498;-78
2023/05/01 11:52:22;;;;;;;;;;;21.70;65.00;;;;;;5058737;28;19928;-77
2023/05/01 11:54:47;;;;;;;;;;;21.70;63.70;;;;;;5106951;28;19928;-78
2023/05/01 11:57:13;;;;;;;;;;;21.70;64.90;;;;;;5091161;28;20348;-78
2023/05/01 11:59:39;;;;;;;;;;;21.50;60.40;;;;;;5075094;28;19924;-77
2023/05/01 12:02:16;;;;;;;;;;;21.40;62.70;;;;;;5045524;28;19925;-78
2023/05/01 12:04:41;;;;;;;;;;;21.00;60.60;;;;;;5075170;28;19924;-78
2023/05/01 12:07:18;;;;;;;;;;;21.00;62.10;;;;;;5089876;28;19996;-77
2023/05/01 12:09:44;;;;;;;;;;;21.10;62.60;;;;;;5081837;28;19951;-79
2023/05/01 12:12:09;;;;;;;;;;;21.30;64.50;;;;;;5070860;28;20372;-78
2023/05/01 12:14:35;;;;;;;;;;;21.50;61.30;;;;;;5076230;28;19928;-78
2023/05/01 12:17:02;;;;;;;;;;;21.50;59.30;;;;;;5074558;28;20196;-79
2023/05/01 12:19:28;;;;;;;;;;;21.40;62.20;;;;;;5076092;28;20462;-79
2023/05/01 12:22:07;;;;;;;;;;;21.50;62.40;;;;;;5060068;28;19978;-79
2023/05/01 12:24:32;;;;;;;;;;;21.40;60.30;;;;;;5074758;28;19924;-78
2023/05/01 12:26:59;;;;;;;;;;;21.30;60.90;;;;;;5057380;28;22186;-78
2023/05/01 12:29:25;;;;;;;;;;;21.30;60.40;;;;;;5091901;28;19928;-79
2023/05/01 12:31:51;;;;;;;;;;;21.30;60.80;;;;;;5074445;28;20462;-77
2023/05/01 12:34:16;;;;;;;;;;;21.30;60.70;;;;;;5089114;28;19986;-77
2023/05/01 12:36:51;;;;;;;;;;;21.30;59.90;;;;;;5041442;28;19924;-78
2023/05/01 12:39:16;;;;;;;;;;;21.30;60.80;;;;;;5087017;28;19956;-76
2023/05/01 12:41:47;;;;;;;;;;;21.20;56.60;;;;;;5072662;28;19924;-78
2023/05/01 12:44:19;;;;;;;;;;;21.10;59.10;;;;;;5063858;28;19924;-78
2023/05/01 12:46:51;;;;;;;;;;;21.20;61.30;;;;;;5063042;28;19998;-78
2023/05/01 12:49:17;;;;;;;;;;;21.30;56.60;;;;;;5063571;28;19979;-78
2023/05/01 12:51:47;;;;;;;;;;;21.50;59.90;;;;;;5096862;28;20171;-78
2023/05/01 12:54:23;;;;;;;;;;;21.80;58.60;;;;;;5095785;28;19947;-78
2023/05/01 12:56:49;;;;;;;;;;;21.90;58.70;;;;;;5063807;28;19931;-78
2023/05/01 12:59:25;;;;;;;;;;;21.90;58.80;;;;;;5062871;28;19928;-78
2023/05/01 13:02:00;;;;;;;;;;;21.90;59.10;;;;;;5096778;28;19925;-79
2023/05/01 13:04:26;;;;;;;;;;;22.00;60.00;;;;;;5079712;28;20386;-78
2023/05/01 13:06:54;;;;;;;;;;;22.00;58.30;;;;;;5062945;28;20306;-80
2023/05/01 13:09:25;;;;;;;;;;;21.80;57.90;;;;;;5078818;28;19970;-79
2023/05/01 13:12:04;;;;;;;;;;;21.80;60.10;;;;;;5078952;28;19925;-79
2023/05/01 13:14:37;;;;;;;;;;;21.90;60.50;;;;;;5079742;28;19928;-80
2023/05/01 13:17:06;;;;;;;;;;;21.80;57.10;;;;;;5063204;28;19925;-79
2023/05/01 13:19:31;;;;;;;;;;;21.80;58.80;;;;;;5095442;28;20417;-79
2023/05/01 13:21:57;;;;;;;;;;;21.70;58.70;;;;;;5096716;28;19936;-79
2023/05/01 13:24:23;;;;;;;;;;;21.60;60.80;;;;;;5095364;28;19924;-80
2023/05/01 13:26:59;;;;;;;;;;;21.30;58.80;;;;;;5079592;28;19925;-79
2023/05/01 13:29:25;;;;;;;;;;;21.00;59.30;;;;;;5063101;28;19935;-79
2023/05/01 13:31:51;;;;;;;;;;;20.80;60.10;;;;;;5079064;28;19932;-79
2023/05/01 13:34:21;;;;;;;;;;;20.60;61.20;;;;;;5062342;28;19929;-80
2023/05/01 13:36:46;;;;;;;;;;;20.40;60.50;;;;;;5062196;28;19924;-79
2023/05/01 13:39:17;;;;;;;;;;;20.20;60.10;;;;;;5086383;28;19983;-80
2023/05/01 13:41:43;;;;;;;;;;;20.00;62.20;;;;;;5061937;28;20406;-80
2023/05/01 13:44:09;;;;;;;;;;;19.80;62.80;;;;;;5079473;28;19931;-79
2023/05/01 13:46:34;;;;;;;;;;;19.70;63.00;;;;;;5078618;28;19928;-79
2023/05/01 13:49:02;;;;;;;;;;;19.60;64.20;;;;;;5095785;28;19928;-80
2023/05/01 13:51:31;;;;;;;;;;;19.50;64.90;;;;;;5076624;28;19932;-80
2023/05/01 13:53:57;;;;;;;;;;;19.50;64.80;;;;;;5077439;28;19925;-80
2023/05/01 13:56:22;;;;;;;;;;;19.50;65.70;;;;;;5090575;28;20005;-80
2023/05/01 13:58:49;;;;;;;;;;;19.60;65.60;;;;;;5070160;28;19925;-80
2023/05/01 14:01:15;;;;;;;;;;;19.70;65.00;;;;;;5085273;28;19975;-80
2023/05/01 14:03:41;;;;;;;;;;;19.70;65.90;;;;;;5053656;28;19954;-80
2023/05/01 14:06:08;;;;;;;;;;;19.80;65.20;;;;;;5090322;28;19928;-80
2023/05/01 14:08:34;;;;;;;;;;;19.60;63.40;;;;;;5092152;28;19951;-80
2023/05/01 14:11:02;;;;;;;;;;;19.60;64.90;;;;;;5043222;28;20272;-80
2023/05/01 14:13:28;;;;;;;;;;;19.60;65.00;;;;;;5095000;28;19924;-80
2023/05/01 14:15:54;;;;;;;;;;;19.60;64.90;;;;;;5070123;28;19999;-80
2023/05/01 14:18:20;;;;;;;;;;;19.60;64.20;;;;;;5079046;28;19971;-80
2023/05/01 14:20:46;;;;;;;;;;;19.50;64.50;;;;;;5095011;28;19924;-80